PWSweather.com
Personal Weather Stations
Station Observations
IROGLAN40
AalgaardNO 4330

AalgaardNO 4330

Lat: 58.773, Lon: 5.846

Elevation: 326

Station Type: Davis Vanatge Pro2

www.mavahome.com

High Low Average
Temperature 54.4°F12.4°F 51.9°F11.1°F 53.2°F11.8°F
Dew Point 49.1°F9.5°F 44.2°F6.8°F 45.7°F7.6°F
Winds 18.4 mph SSE29.6 mph SSE 3.5 mph 5.6 mph 10.4 mph 16.7 mph
Wind Gusts 29.9 mph48.1 mph 5.8 mph9.3 mph 16.9 mph27.2 mph
Humidity 88% 71% 76%
Pressure 29.80 in1009.10 in 29.66 in1004.40 in -
Precipitation 0.09 in2.30 in - -
Hour Temp Dew Point Humidity Winds Wind Gusts Pressure Precip Precip Rate Daily Precip Total
12:00 AM 53.5°F11.9°C 46.1°F7.8°C 76% 9.2 mph SE14.8 kmh SE 13.8 mph22.2 kmh 29.80 in1009.1 mb - 0.00 in0.0 mm 0.00 in0.0 mm
12:10 AM 53.5°F11.9°C 46.5°F8.1°C 77% 6.9 mph SE11.1 kmh SE 6.9 mph11.1 kmh 29.80 in1009.1 mb - 0.00 in0.0 mm 0.00 in0.0 mm
12:20 AM 53.7°F12.1°C 46.3°F7.9°C 76% 9.2 mph SE14.8 kmh SE 10.4 mph16.7 kmh 29.80 in1009.1 mb - 0.00 in0.0 mm 0.00 in0.0 mm
12:30 AM 53.8°F12.1°C 46.4°F8.0°C 76% 10.4 mph ESE16.7 kmh ESE 16.1 mph25.9 kmh 29.80 in1009.1 mb - 0.00 in0.0 mm 0.00 in0.0 mm
12:40 AM 53.9°F12.2°C 46.5°F8.1°C 76% 12.7 mph SE20.4 kmh SE 18.4 mph29.6 kmh 29.80 in1009.1 mb - 0.00 in0.0 mm 0.00 in0.0 mm
12:50 AM 53.7°F12.1°C 46.3°F7.9°C 76% 11.5 mph SE18.5 kmh SE 20.7 mph33.3 kmh 29.80 in1009.1 mb - 0.00 in0.0 mm 0.00 in0.0 mm
01:00 AM 53.6°F12.0°C 46.2°F7.9°C 76% 8.1 mph ESE13.0 kmh ESE 10.4 mph16.7 kmh 29.80 in1009.1 mb - 0.00 in0.0 mm 0.00 in0.0 mm
01:10 AM 53.5°F11.9°C 46.1°F7.8°C 76% 13.8 mph SE22.2 kmh SE 23.0 mph37.0 kmh 29.80 in1009.1 mb - 0.00 in0.0 mm 0.00 in0.0 mm
01:20 AM 53.5°F11.9°C 46.1°F7.8°C 76% 9.2 mph SE14.8 kmh SE 15.0 mph24.1 kmh 29.80 in1009.1 mb - 0.00 in0.0 mm 0.00 in0.0 mm
01:30 AM 53.5°F11.9°C 46.1°F7.8°C 76% 13.8 mph SE22.2 kmh SE 19.6 mph31.5 kmh 29.80 in1009.1 mb - 0.00 in0.0 mm 0.00 in0.0 mm
01:40 AM 53.7°F12.1°C 46.3°F7.9°C 76% 12.7 mph SE20.4 kmh SE 21.9 mph35.2 kmh 29.79 in1008.8 mb - 0.00 in0.0 mm 0.00 in0.0 mm
01:50 AM 53.7°F12.1°C 46.0°F7.8°C 75% 11.5 mph SE18.5 kmh SE 19.6 mph31.5 kmh 29.79 in1008.8 mb - 0.00 in0.0 mm 0.00 in0.0 mm
02:00 AM 53.5°F11.9°C 46.1°F7.8°C 76% 13.8 mph SE22.2 kmh SE 24.2 mph38.9 kmh 29.80 in1009.1 mb - 0.00 in0.0 mm 0.00 in0.0 mm
02:10 AM 53.6°F12.0°C 45.9°F7.7°C 75% 10.4 mph ESE16.7 kmh ESE 18.4 mph29.6 kmh 29.80 in1009.1 mb - 0.00 in0.0 mm 0.00 in0.0 mm
02:20 AM 53.5°F11.9°C 45.8°F7.7°C 75% 16.1 mph SE25.9 kmh SE 27.6 mph44.4 kmh 29.79 in1008.8 mb - 0.00 in0.0 mm 0.00 in0.0 mm
02:30 AM 53.5°F11.9°C 45.8°F7.7°C 75% 11.5 mph ESE18.5 kmh ESE 18.4 mph29.6 kmh 29.79 in1008.8 mb - 0.00 in0.0 mm 0.00 in0.0 mm
02:40 AM 53.6°F12.0°C 45.9°F7.7°C 75% 9.2 mph SE14.8 kmh SE 15.0 mph24.1 kmh 29.79 in1008.8 mb - 0.00 in0.0 mm 0.00 in0.0 mm
02:50 AM 53.6°F12.0°C 45.9°F7.7°C 75% 9.2 mph SE14.8 kmh SE 17.3 mph27.8 kmh 29.79 in1008.8 mb - 0.00 in0.0 mm 0.00 in0.0 mm
03:00 AM 53.6°F12.0°C 45.9°F7.7°C 75% 10.4 mph SE16.7 kmh SE 13.8 mph22.2 kmh 29.79 in1008.8 mb - 0.00 in0.0 mm 0.00 in0.0 mm
03:10 AM 53.5°F11.9°C 45.8°F7.7°C 75% 13.8 mph SE22.2 kmh SE 21.9 mph35.2 kmh 29.79 in1008.8 mb - 0.00 in0.0 mm 0.00 in0.0 mm
03:20 AM 53.6°F12.0°C 45.5°F7.5°C 74% 13.8 mph SE22.2 kmh SE 21.9 mph35.2 kmh 29.78 in1008.5 mb - 0.00 in0.0 mm 0.00 in0.0 mm
03:30 AM 53.6°F12.0°C 45.5°F7.5°C 74% 9.2 mph ESE14.8 kmh ESE 17.3 mph27.8 kmh 29.78 in1008.5 mb - 0.00 in0.0 mm 0.00 in0.0 mm
03:40 AM 53.6°F12.0°C 45.5°F7.5°C 74% 12.7 mph SE20.4 kmh SE 18.4 mph29.6 kmh 29.78 in1008.5 mb - 0.00 in0.0 mm 0.00 in0.0 mm
03:50 AM 53.5°F11.9°C 45.5°F7.5°C 74% 8.1 mph SE13.0 kmh SE 15.0 mph24.1 kmh 29.78 in1008.5 mb - 0.00 in0.0 mm 0.00 in0.0 mm
04:00 AM 53.4°F11.9°C 45.3°F7.4°C 74% 10.4 mph SE16.7 kmh SE 18.4 mph29.6 kmh 29.78 in1008.5 mb - 0.00 in0.0 mm 0.00 in0.0 mm
04:10 AM 53.2°F11.8°C 45.1°F7.3°C 74% 12.7 mph SE20.4 kmh SE 21.9 mph35.2 kmh 29.78 in1008.5 mb - 0.00 in0.0 mm 0.00 in0.0 mm
04:20 AM 53.2°F11.8°C 45.1°F7.3°C 74% 13.8 mph SE22.2 kmh SE 21.9 mph35.2 kmh 29.78 in1008.5 mb - 0.00 in0.0 mm 0.00 in0.0 mm
04:30 AM 53.1°F11.7°C 45.0°F7.2°C 74% 10.4 mph SE16.7 kmh SE 16.1 mph25.9 kmh 29.78 in1008.5 mb - 0.00 in0.0 mm 0.00 in0.0 mm
04:40 AM 52.9°F11.6°C 44.8°F7.1°C 74% 8.1 mph ESE13.0 kmh ESE 13.8 mph22.2 kmh 29.78 in1008.5 mb - 0.00 in0.0 mm 0.00 in0.0 mm
04:50 AM 52.7°F11.5°C 44.6°F7.0°C 74% 9.2 mph SE14.8 kmh SE 10.4 mph16.7 kmh 29.77 in1008.1 mb - 0.00 in0.0 mm 0.00 in0.0 mm
05:00 AM 52.6°F11.4°C 44.9°F7.2°C 75% 11.5 mph ESE18.5 kmh ESE 16.1 mph25.9 kmh 29.77 in1008.1 mb - 0.00 in0.0 mm 0.00 in0.0 mm
05:10 AM 52.7°F11.5°C 44.6°F7.0°C 74% 8.1 mph SE13.0 kmh SE 12.7 mph20.4 kmh 29.77 in1008.1 mb - 0.00 in0.0 mm 0.00 in0.0 mm
05:20 AM 52.6°F11.4°C 44.5°F6.9°C 74% 11.5 mph SE18.5 kmh SE 26.5 mph42.6 kmh 29.76 in1007.8 mb - 0.00 in0.0 mm 0.00 in0.0 mm
05:30 AM 52.5°F11.4°C 44.4°F6.9°C 74% 11.5 mph SE18.5 kmh SE 18.4 mph29.6 kmh 29.76 in1007.8 mb - 0.00 in0.0 mm 0.00 in0.0 mm
05:40 AM 52.5°F11.4°C 44.4°F6.9°C 74% 12.7 mph SE20.4 kmh SE 21.9 mph35.2 kmh 29.76 in1007.8 mb - 0.00 in0.0 mm 0.00 in0.0 mm
05:50 AM 52.5°F11.4°C 44.4°F6.9°C 74% 9.2 mph SE14.8 kmh SE 15.0 mph24.1 kmh 29.76 in1007.8 mb - 0.00 in0.0 mm 0.00 in0.0 mm
06:00 AM 52.4°F11.3°C 44.7°F7.1°C 75% 9.2 mph SE14.8 kmh SE 13.8 mph22.2 kmh 29.76 in1007.8 mb - 0.00 in0.0 mm 0.00 in0.0 mm
06:10 AM 52.4°F11.3°C 44.7°F7.1°C 75% 12.7 mph SE20.4 kmh SE 18.4 mph29.6 kmh 29.76 in1007.8 mb - 0.00 in0.0 mm 0.00 in0.0 mm
06:20 AM 52.4°F11.3°C 44.4°F6.9°C 74% 11.5 mph SE18.5 kmh SE 17.3 mph27.8 kmh 29.77 in1008.1 mb - 0.00 in0.0 mm 0.00 in0.0 mm
06:30 AM 52.3°F11.3°C 44.6°F7.0°C 75% 9.2 mph SE14.8 kmh SE 11.5 mph18.5 kmh 29.77 in1008.1 mb - 0.00 in0.0 mm 0.00 in0.0 mm
06:40 AM 52.2°F11.2°C 44.5°F6.9°C 75% 10.4 mph SE16.7 kmh SE 20.7 mph33.3 kmh 29.77 in1008.1 mb - 0.00 in0.0 mm 0.00 in0.0 mm
06:50 AM 52.3°F11.3°C 44.3°F6.8°C 74% 13.8 mph SE22.2 kmh SE 21.9 mph35.2 kmh 29.77 in1008.1 mb - 0.00 in0.0 mm 0.00 in0.0 mm
07:00 AM 52.2°F11.2°C 44.2°F6.8°C 74% 10.4 mph SE16.7 kmh SE 11.5 mph18.5 kmh 29.77 in1008.1 mb - 0.00 in0.0 mm 0.00 in0.0 mm
07:10 AM 52.3°F11.3°C 44.3°F6.8°C 74% 9.2 mph SE14.8 kmh SE 12.7 mph20.4 kmh 29.77 in1008.1 mb - 0.00 in0.0 mm 0.00 in0.0 mm
07:20 AM 52.4°F11.3°C 44.4°F6.9°C 74% 10.4 mph SE16.7 kmh SE 15.0 mph24.1 kmh 29.78 in1008.5 mb - 0.00 in0.0 mm 0.00 in0.0 mm
07:30 AM 52.6°F11.4°C 44.5°F6.9°C 74% 8.1 mph SE13.0 kmh SE 11.5 mph18.5 kmh 29.77 in1008.1 mb - 0.00 in0.0 mm 0.00 in0.0 mm
07:40 AM 52.5°F11.4°C 44.5°F6.9°C 74% 4.6 mph SE7.4 kmh SE 15.0 mph24.1 kmh 29.77 in1008.1 mb - 0.00 in0.0 mm 0.00 in0.0 mm
07:50 AM 52.4°F11.3°C 44.4°F6.9°C 74% 8.1 mph SE13.0 kmh SE 15.0 mph24.1 kmh 29.77 in1008.1 mb - 0.00 in0.0 mm 0.00 in0.0 mm
08:00 AM 52.5°F11.4°C 44.5°F6.9°C 74% 10.4 mph SE16.7 kmh SE 15.0 mph24.1 kmh 29.77 in1008.1 mb - 0.00 in0.0 mm 0.00 in0.0 mm
08:10 AM 52.8°F11.6°C 44.7°F7.1°C 74% 8.1 mph SE13.0 kmh SE 11.5 mph18.5 kmh 29.77 in1008.1 mb - 0.00 in0.0 mm 0.00 in0.0 mm
08:20 AM 52.9°F11.6°C 44.5°F6.9°C 73% 6.9 mph SE11.1 kmh SE 11.5 mph18.5 kmh 29.76 in1007.8 mb - 0.00 in0.0 mm 0.00 in0.0 mm
08:30 AM 52.9°F11.6°C 44.5°F6.9°C 73% 5.8 mph ESE9.3 kmh ESE 9.2 mph14.8 kmh 29.77 in1008.1 mb - 0.00 in0.0 mm 0.00 in0.0 mm
08:40 AM 53.0°F11.7°C 44.6°F7.0°C 73% 8.1 mph SE13.0 kmh SE 17.3 mph27.8 kmh 29.77 in1008.1 mb - 0.00 in0.0 mm 0.00 in0.0 mm
08:50 AM 53.1°F11.7°C 44.7°F7.1°C 73% 13.8 mph SE22.2 kmh SE 16.1 mph25.9 kmh 29.77 in1008.1 mb - 0.00 in0.0 mm 0.00 in0.0 mm
09:00 AM 53.0°F11.7°C 44.6°F7.0°C 73% 9.2 mph SE14.8 kmh SE 20.7 mph33.3 kmh 29.77 in1008.1 mb - 0.00 in0.0 mm 0.00 in0.0 mm
09:10 AM 53.1°F11.7°C 44.7°F7.1°C 73% 8.1 mph SE13.0 kmh SE 13.8 mph22.2 kmh 29.77 in1008.1 mb - 0.00 in0.0 mm 0.00 in0.0 mm
09:20 AM 53.1°F11.7°C 44.3°F6.8°C 72% 10.4 mph SE16.7 kmh SE 17.3 mph27.8 kmh 29.77 in1008.1 mb - 0.00 in0.0 mm 0.00 in0.0 mm
09:30 AM 53.2°F11.8°C 44.4°F6.9°C 72% 10.4 mph ESE16.7 kmh ESE 17.3 mph27.8 kmh 29.77 in1008.1 mb - 0.00 in0.0 mm 0.00 in0.0 mm
09:40 AM 53.1°F11.7°C 44.3°F6.8°C 72% 9.2 mph SE14.8 kmh SE 16.1 mph25.9 kmh 29.77 in1008.1 mb - 0.00 in0.0 mm 0.00 in0.0 mm
09:50 AM 53.2°F11.8°C 44.4°F6.9°C 72% 11.5 mph SE18.5 kmh SE 23.0 mph37.0 kmh 29.77 in1008.1 mb - 0.00 in0.0 mm 0.00 in0.0 mm
10:00 AM 53.2°F11.8°C 44.4°F6.9°C 72% 12.7 mph SE20.4 kmh SE 20.7 mph33.3 kmh 29.76 in1007.8 mb - 0.00 in0.0 mm 0.00 in0.0 mm
10:10 AM 53.2°F11.8°C 44.4°F6.9°C 72% 10.4 mph SE16.7 kmh SE 15.0 mph24.1 kmh 29.76 in1007.8 mb - 0.00 in0.0 mm 0.00 in0.0 mm
10:20 AM 53.2°F11.8°C 44.4°F6.9°C 72% 11.5 mph SE18.5 kmh SE 19.6 mph31.5 kmh 29.76 in1007.8 mb - 0.00 in0.0 mm 0.00 in0.0 mm
10:30 AM 53.3°F11.8°C 44.5°F6.9°C 72% 11.5 mph SE18.5 kmh SE 17.3 mph27.8 kmh 29.76 in1007.8 mb - 0.00 in0.0 mm 0.00 in0.0 mm
10:40 AM 53.3°F11.8°C 44.5°F6.9°C 72% 12.7 mph SE20.4 kmh SE 21.9 mph35.2 kmh 29.76 in1007.8 mb - 0.00 in0.0 mm 0.00 in0.0 mm
10:50 AM 53.3°F11.8°C 44.5°F6.9°C 72% 10.4 mph SE16.7 kmh SE 21.9 mph35.2 kmh 29.75 in1007.5 mb - 0.00 in0.0 mm 0.00 in0.0 mm
11:00 AM 53.3°F11.8°C 44.5°F6.9°C 72% 16.1 mph SE25.9 kmh SE 26.5 mph42.6 kmh 29.75 in1007.5 mb - 0.00 in0.0 mm 0.00 in0.0 mm
11:10 AM 53.4°F11.9°C 44.6°F7.0°C 72% 15.0 mph SE24.1 kmh SE 29.9 mph48.1 kmh 29.75 in1007.5 mb - 0.00 in0.0 mm 0.00 in0.0 mm
11:20 AM 53.3°F11.8°C 44.5°F6.9°C 72% 9.2 mph SE14.8 kmh SE 16.1 mph25.9 kmh 29.75 in1007.5 mb - 0.00 in0.0 mm 0.00 in0.0 mm
11:30 AM 53.2°F11.8°C 44.8°F7.1°C 73% 9.2 mph SE14.8 kmh SE 13.8 mph22.2 kmh 29.75 in1007.5 mb - 0.00 in0.0 mm 0.00 in0.0 mm
11:40 AM 53.3°F11.8°C 44.9°F7.2°C 73% 12.7 mph SE20.4 kmh SE 18.4 mph29.6 kmh 29.75 in1007.5 mb - 0.00 in0.0 mm 0.00 in0.0 mm
11:50 AM 53.3°F11.8°C 44.9°F7.2°C 73% 12.7 mph SE20.4 kmh SE 20.7 mph33.3 kmh 29.75 in1007.5 mb - 0.00 in0.0 mm 0.00 in0.0 mm
12:00 PM 53.4°F11.9°C 44.9°F7.2°C 73% 10.4 mph SE16.7 kmh SE 18.4 mph29.6 kmh 29.75 in1007.5 mb - 0.00 in0.0 mm 0.00 in0.0 mm
12:10 PM 53.6°F12.0°C 45.2°F7.3°C 73% 12.7 mph SE20.4 kmh SE 17.3 mph27.8 kmh 29.75 in1007.5 mb - 0.00 in0.0 mm 0.00 in0.0 mm
12:20 PM 53.8°F12.1°C 45.0°F7.2°C 72% 13.8 mph SE22.2 kmh SE 20.7 mph33.3 kmh 29.74 in1007.1 mb - 0.00 in0.0 mm 0.00 in0.0 mm
12:30 PM 54.0°F12.2°C 45.2°F7.3°C 72% 9.2 mph SE14.8 kmh SE 16.1 mph25.9 kmh 29.74 in1007.1 mb - 0.00 in0.0 mm 0.00 in0.0 mm
12:40 PM 54.4°F12.4°C 45.2°F7.3°C 71% 8.1 mph SE13.0 kmh SE 17.3 mph27.8 kmh 29.74 in1007.1 mb - 0.00 in0.0 mm 0.00 in0.0 mm
12:50 PM 54.2°F12.3°C 45.0°F7.2°C 71% 11.5 mph SE18.5 kmh SE 17.3 mph27.8 kmh 29.73 in1006.8 mb - 0.00 in0.0 mm 0.00 in0.0 mm
01:00 PM 54.0°F12.2°C 44.8°F7.1°C 71% 18.4 mph SSE29.6 kmh SSE 24.2 mph38.9 kmh 29.74 in1007.1 mb - 0.00 in0.0 mm 0.00 in0.0 mm
01:10 PM 54.2°F12.3°C 45.4°F7.4°C 72% 10.4 mph SE16.7 kmh SE 18.4 mph29.6 kmh 29.73 in1006.8 mb - 0.00 in0.0 mm 0.00 in0.0 mm
01:20 PM 54.2°F12.3°C 45.4°F7.4°C 72% 11.5 mph SE18.5 kmh SE 16.1 mph25.9 kmh 29.74 in1007.1 mb - 0.00 in0.0 mm 0.00 in0.0 mm
01:30 PM 54.0°F12.2°C 45.2°F7.3°C 72% 9.2 mph SE14.8 kmh SE 11.5 mph18.5 kmh 29.74 in1007.1 mb - 0.00 in0.0 mm 0.00 in0.0 mm
01:40 PM 53.8°F12.1°C 45.0°F7.2°C 72% 12.7 mph SE20.4 kmh SE 24.2 mph38.9 kmh 29.74 in1007.1 mb - 0.00 in0.0 mm 0.00 in0.0 mm
01:50 PM 53.8°F12.1°C 45.0°F7.2°C 72% 13.8 mph SE22.2 kmh SE 19.6 mph31.5 kmh 29.73 in1006.8 mb - 0.00 in0.0 mm 0.00 in0.0 mm
02:00 PM 53.7°F12.1°C 44.9°F7.2°C 72% 10.4 mph SE16.7 kmh SE 18.4 mph29.6 kmh 29.73 in1006.8 mb - 0.00 in0.0 mm 0.00 in0.0 mm
02:10 PM 53.5°F11.9°C 44.7°F7.1°C 72% 16.1 mph SE25.9 kmh SE 26.5 mph42.6 kmh 29.71 in1006.1 mb - 0.00 in0.0 mm 0.00 in0.0 mm
02:20 PM 53.4°F11.9°C 44.9°F7.2°C 73% 10.4 mph SE16.7 kmh SE 26.5 mph42.6 kmh 29.70 in1005.8 mb - 0.00 in0.0 mm 0.00 in0.0 mm
02:30 PM 53.3°F11.8°C 44.9°F7.2°C 73% 9.2 mph SE14.8 kmh SE 16.1 mph25.9 kmh 29.70 in1005.8 mb - 0.00 in0.0 mm 0.00 in0.0 mm
02:40 PM 53.2°F11.8°C 44.8°F7.1°C 73% 10.4 mph ESE16.7 kmh ESE 13.8 mph22.2 kmh 29.71 in1006.1 mb - 0.00 in0.0 mm 0.00 in0.0 mm
02:50 PM 53.1°F11.7°C 45.0°F7.2°C 74% 10.4 mph SE16.7 kmh SE 12.7 mph20.4 kmh 29.71 in1006.1 mb - 0.00 in0.0 mm 0.00 in0.0 mm
03:00 PM 53.0°F11.7°C 44.9°F7.2°C 74% 10.4 mph SE16.7 kmh SE 17.3 mph27.8 kmh 29.72 in1006.4 mb - 0.00 in0.0 mm 0.00 in0.0 mm
03:10 PM 52.9°F11.6°C 44.8°F7.1°C 74% 10.4 mph SSE16.7 kmh SSE 16.1 mph25.9 kmh 29.72 in1006.4 mb - 0.00 in0.0 mm 0.00 in0.0 mm
03:20 PM 52.7°F11.5°C 45.0°F7.2°C 75% 11.5 mph SE18.5 kmh SE 17.3 mph27.8 kmh 29.72 in1006.4 mb - 0.00 in0.0 mm 0.00 in0.0 mm
03:30 PM 52.7°F11.5°C 45.0°F7.2°C 75% 12.7 mph SE20.4 kmh SE 19.6 mph31.5 kmh 29.72 in1006.4 mb - 0.00 in0.0 mm 0.00 in0.0 mm
03:40 PM 52.6°F11.4°C 44.9°F7.2°C 75% 11.5 mph SE18.5 kmh SE 16.1 mph25.9 kmh 29.72 in1006.4 mb - 0.00 in0.0 mm 0.00 in0.0 mm
03:50 PM 52.4°F11.3°C 45.1°F7.3°C 76% 11.5 mph SE18.5 kmh SE 20.7 mph33.3 kmh 29.72 in1006.4 mb - 0.00 in0.0 mm 0.00 in0.0 mm
04:00 PM 52.4°F11.3°C 45.1°F7.3°C 76% 10.4 mph SE16.7 kmh SE 17.3 mph27.8 kmh 29.71 in1006.1 mb - 0.00 in0.0 mm 0.00 in0.0 mm
04:10 PM 52.1°F11.2°C 45.1°F7.3°C 77% 9.2 mph SE14.8 kmh SE 17.3 mph27.8 kmh 29.70 in1005.8 mb - 0.00 in0.0 mm 0.00 in0.0 mm
04:20 PM 51.9°F11.1°C 45.3°F7.4°C 78% 6.9 mph SE11.1 kmh SE 11.5 mph18.5 kmh 29.70 in1005.8 mb - 0.00 in0.0 mm 0.00 in0.0 mm
04:30 PM 52.1°F11.2°C 45.4°F7.4°C 78% 10.4 mph SE16.7 kmh SE 18.4 mph29.6 kmh 29.70 in1005.8 mb - 0.00 in0.0 mm 0.00 in0.0 mm
04:40 PM 52.3°F11.3°C 45.6°F7.6°C 78% 8.1 mph ESE13.0 kmh ESE 10.4 mph16.7 kmh 29.70 in1005.8 mb - 0.00 in0.0 mm 0.00 in0.0 mm
04:50 PM 52.6°F11.4°C 45.9°F7.7°C 78% 10.4 mph SE16.7 kmh SE 11.5 mph18.5 kmh 29.70 in1005.8 mb - 0.00 in0.0 mm 0.00 in0.0 mm
05:00 PM 52.7°F11.5°C 46.0°F7.8°C 78% 10.4 mph SE16.7 kmh SE 23.0 mph37.0 kmh 29.70 in1005.8 mb - 0.00 in0.0 mm 0.00 in0.0 mm
05:10 PM 52.9°F11.6°C 45.9°F7.7°C 77% 13.8 mph SE22.2 kmh SE 23.0 mph37.0 kmh 29.70 in1005.8 mb - 0.00 in0.0 mm 0.00 in0.0 mm
05:20 PM 53.1°F11.7°C 45.7°F7.6°C 76% 11.5 mph SE18.5 kmh SE 19.6 mph31.5 kmh 29.69 in1005.4 mb - 0.00 in0.0 mm 0.00 in0.0 mm
05:30 PM 53.3°F11.8°C 45.9°F7.7°C 76% 9.2 mph SE14.8 kmh SE 13.8 mph22.2 kmh 29.69 in1005.4 mb - 0.00 in0.0 mm 0.00 in0.0 mm
05:40 PM 53.3°F11.8°C 45.9°F7.7°C 76% 11.5 mph ESE18.5 kmh ESE 23.0 mph37.0 kmh 29.69 in1005.4 mb - 0.00 in0.0 mm 0.00 in0.0 mm
05:50 PM 53.3°F11.8°C 46.0°F7.8°C 76% 12.7 mph ESE20.4 kmh ESE 21.9 mph35.2 kmh 29.69 in1005.4 mb - 0.00 in0.0 mm 0.00 in0.0 mm
06:00 PM 53.1°F11.7°C 46.0°F7.8°C 77% 8.1 mph SE13.0 kmh SE 18.4 mph29.6 kmh 29.69 in1005.4 mb - 0.00 in0.0 mm 0.00 in0.0 mm
06:10 PM 53.0°F11.7°C 46.3°F7.9°C 78% 9.2 mph ESE14.8 kmh ESE 15.0 mph24.1 kmh 29.69 in1005.4 mb - 0.00 in0.0 mm 0.00 in0.0 mm
06:20 PM 52.9°F11.6°C 46.2°F7.9°C 78% 9.2 mph SE14.8 kmh SE 19.6 mph31.5 kmh 29.69 in1005.4 mb - 0.00 in0.0 mm 0.00 in0.0 mm
06:30 PM 52.9°F11.6°C 46.2°F7.9°C 78% 9.2 mph SSE14.8 kmh SSE 15.0 mph24.1 kmh 29.68 in1005.1 mb - 0.00 in0.0 mm 0.00 in0.0 mm
06:40 PM 52.9°F11.6°C 46.6°F8.1°C 79% 12.7 mph SE20.4 kmh SE 19.6 mph31.5 kmh 29.68 in1005.1 mb - 0.00 in0.0 mm 0.00 in0.0 mm
06:50 PM 52.8°F11.6°C 46.5°F8.1°C 79% 9.2 mph ESE14.8 kmh ESE 15.0 mph24.1 kmh 29.68 in1005.1 mb - 0.00 in0.0 mm 0.00 in0.0 mm
07:00 PM 52.8°F11.6°C 46.5°F8.1°C 79% 9.2 mph SE14.8 kmh SE 12.7 mph20.4 kmh 29.68 in1005.1 mb - 0.00 in0.0 mm 0.00 in0.0 mm
07:10 PM 52.9°F11.6°C 46.6°F8.1°C 79% 10.4 mph SE16.7 kmh SE 19.6 mph31.5 kmh 29.67 in1004.7 mb - 0.00 in0.0 mm 0.00 in0.0 mm
07:20 PM 53.1°F11.7°C 46.8°F8.2°C 79% 11.5 mph SE18.5 kmh SE 19.6 mph31.5 kmh 29.68 in1005.1 mb - 0.00 in0.0 mm 0.00 in0.0 mm
07:30 PM 53.1°F11.7°C 46.8°F8.2°C 79% 10.4 mph ESE16.7 kmh ESE 17.3 mph27.8 kmh 29.67 in1004.7 mb - 0.00 in0.0 mm 0.00 in0.0 mm
07:40 PM 53.3°F11.8°C 46.9°F8.3°C 79% 13.8 mph SE22.2 kmh SE 19.6 mph31.5 kmh 29.67 in1004.7 mb - 0.00 in0.0 mm 0.00 in0.0 mm
07:50 PM 53.5°F11.9°C 46.8°F8.2°C 78% 15.0 mph SE24.1 kmh SE 21.9 mph35.2 kmh 29.67 in1004.7 mb - 0.00 in0.0 mm 0.00 in0.0 mm
08:00 PM 53.6°F12.0°C 46.9°F8.3°C 78% 9.2 mph SE14.8 kmh SE 13.8 mph22.2 kmh 29.67 in1004.7 mb - 0.00 in0.0 mm 0.00 in0.0 mm
08:10 PM 53.7°F12.1°C 47.3°F8.5°C 79% 11.5 mph SE18.5 kmh SE 20.7 mph33.3 kmh 29.66 in1004.4 mb - 0.00 in0.0 mm 0.00 in0.0 mm
08:20 PM 53.7°F12.1°C 47.3°F8.5°C 79% 10.4 mph ESE16.7 kmh ESE 13.8 mph22.2 kmh 29.66 in1004.4 mb - 0.00 in0.0 mm 0.00 in0.0 mm
08:30 PM 53.8°F12.1°C 47.4°F8.6°C 79% 11.5 mph SE18.5 kmh SE 11.5 mph18.5 kmh 29.67 in1004.7 mb - 0.00 in0.0 mm 0.00 in0.0 mm
08:40 PM 53.8°F12.1°C 47.4°F8.6°C 79% 11.5 mph ESE18.5 kmh ESE 19.6 mph31.5 kmh 29.67 in1004.7 mb - 0.00 in0.0 mm 0.00 in0.0 mm
08:50 PM 53.9°F12.2°C 47.5°F8.6°C 79% 9.2 mph ESE14.8 kmh ESE 15.0 mph24.1 kmh 29.67 in1004.7 mb - 0.00 in0.0 mm 0.00 in0.0 mm
09:00 PM 54.0°F12.2°C 47.6°F8.7°C 79% 12.7 mph ESE20.4 kmh ESE 21.9 mph35.2 kmh 29.67 in1004.7 mb - 0.00 in0.0 mm 0.00 in0.0 mm
09:10 PM 54.2°F12.3°C 47.8°F8.8°C 79% 11.5 mph SE18.5 kmh SE 13.8 mph22.2 kmh 29.67 in1004.7 mb - 0.00 in0.0 mm 0.00 in0.0 mm
09:20 PM 54.1°F12.3°C 48.1°F8.9°C 80% 8.1 mph SE13.0 kmh SE 11.5 mph18.5 kmh 29.66 in1004.4 mb - 0.00 in0.0 mm 0.00 in0.0 mm
09:30 PM 53.7°F12.1°C 48.0°F8.9°C 81% 8.1 mph SE13.0 kmh SE 12.7 mph20.4 kmh 29.66 in1004.4 mb - 0.00 in0.0 mm 0.00 in0.0 mm
09:40 PM 53.6°F12.0°C 48.2°F9.0°C 82% 8.1 mph SE13.0 kmh SE 16.1 mph25.9 kmh 29.67 in1004.7 mb - 0.00 in0.0 mm 0.00 in0.0 mm
09:50 PM 53.4°F11.9°C 48.4°F9.1°C 83% 5.8 mph E9.3 kmh E 10.4 mph16.7 kmh 29.67 in1004.7 mb - 0.01 in0.3 mm 0.01 in0.3 mm
10:00 PM 53.2°F11.8°C 48.5°F9.2°C 84% 3.5 mph SE5.6 kmh SE 5.8 mph9.3 kmh 29.67 in1004.7 mb - 0.00 in0.0 mm 0.01 in0.3 mm
10:10 PM 53.1°F11.7°C 48.7°F9.3°C 85% 5.8 mph SE9.3 kmh SE 9.2 mph14.8 kmh 29.67 in1004.7 mb - 0.00 in0.0 mm 0.01 in0.3 mm
10:20 PM 53.0°F11.7°C 48.9°F9.4°C 86% 9.2 mph SE14.8 kmh SE 11.5 mph18.5 kmh 29.67 in1004.7 mb - 0.00 in0.0 mm 0.01 in0.3 mm
10:30 PM 52.9°F11.6°C 48.8°F9.3°C 86% 6.9 mph SE11.1 kmh SE 11.5 mph18.5 kmh 29.67 in1004.7 mb - 0.01 in0.3 mm 0.02 in0.5 mm
10:40 PM 52.7°F11.5°C 49.0°F9.4°C 87% 5.8 mph ESE9.3 kmh ESE 9.2 mph14.8 kmh 29.67 in1004.7 mb - 0.01 in0.3 mm 0.02 in0.5 mm
10:50 PM 52.6°F11.4°C 49.1°F9.5°C 88% 8.1 mph SSE13.0 kmh SSE 11.5 mph18.5 kmh 29.67 in1004.7 mb - 0.01 in0.3 mm 0.03 in0.8 mm
11:00 PM 52.5°F11.4°C 49.0°F9.4°C 88% 8.1 mph SE13.0 kmh SE 11.5 mph18.5 kmh 29.66 in1004.4 mb - 0.00 in0.0 mm 0.04 in1.0 mm
11:10 PM 52.7°F11.5°C 48.9°F9.4°C 87% 8.1 mph SE13.0 kmh SE 12.7 mph20.4 kmh 29.66 in1004.4 mb - 0.00 in0.0 mm 0.04 in1.0 mm
11:20 PM 52.7°F11.5°C 48.9°F9.4°C 87% 4.6 mph SE7.4 kmh SE 13.8 mph22.2 kmh 29.66 in1004.4 mb - 0.01 in0.3 mm 0.01 in0.3 mm
11:30 PM 52.5°F11.4°C 48.7°F9.3°C 87% 8.1 mph SE13.0 kmh SE 12.7 mph20.4 kmh 29.66 in1004.4 mb - 0.02 in0.5 mm 0.02 in0.5 mm
11:40 PM 52.6°F11.4°C 48.5°F9.2°C 86% 6.9 mph SE11.1 kmh SE 8.1 mph13.0 kmh 29.66 in1004.4 mb - 0.02 in0.5 mm 0.02 in0.5 mm
11:50 PM 52.5°F11.4°C 48.4°F9.1°C 86% 5.8 mph ESE9.3 kmh ESE 17.3 mph27.8 kmh 29.66 in1004.4 mb - 0.00 in0.0 mm 0.02 in0.5 mm